createdAt,value
2019-02-27T00:01:53.802Z,19.13
2019-02-27T00:04:22.330Z,21.67
2019-02-27T00:06:50.717Z,23.13
2019-02-27T00:09:19.233Z,23.50
2019-02-27T00:11:47.715Z,21.33
2019-02-27T00:14:16.237Z,22.30
2019-02-27T00:16:45.300Z,22.17
2019-02-27T00:19:14.574Z,20.63
2019-02-27T00:21:43.678Z,21.03
2019-02-27T00:24:13.022Z,20.37
2019-02-27T00:26:42.518Z,20.50
2019-02-27T00:29:11.834Z,19.23
2019-02-27T00:31:40.272Z,18.77
2019-02-27T00:34:09.266Z,18.93
2019-02-27T00:36:37.686Z,19.17
2019-02-27T00:39:06.544Z,18.50
2019-02-27T00:41:34.946Z,19.27
2019-02-27T00:44:03.447Z,19.30
2019-02-27T00:46:32.319Z,18.83
2019-02-27T00:49:00.739Z,19.03
2019-02-27T00:51:29.227Z,18.70
2019-02-27T00:53:58.356Z,18.93
2019-02-27T00:56:27.591Z,18.23
2019-02-27T00:58:59.957Z,18.17
2019-02-27T01:01:26.553Z,18.57
2019-02-27T01:03:59.234Z,18.60
2019-02-27T01:06:25.228Z,18.20
2019-02-27T01:08:54.164Z,18.10
2019-02-27T01:11:22.575Z,17.27
2019-02-27T01:13:50.968Z,17.87
2019-02-27T01:16:19.493Z,17.40
2019-02-27T01:18:47.992Z,18.80
2019-02-27T01:21:19.225Z,18.23
2019-02-27T01:23:46.646Z,18.10
2019-02-27T01:26:15.104Z,17.80
2019-02-27T01:28:45.472Z,18.40
2019-02-27T01:31:13.864Z,19.67
2019-02-27T01:33:42.655Z,19.27
2019-02-27T01:36:11.561Z,18.80
2019-02-27T01:38:40.169Z,18.97
2019-02-27T01:41:08.737Z,18.70
2019-02-27T01:43:40.629Z,18.60
2019-02-27T01:46:09.310Z,17.77
2019-02-27T01:48:42.814Z,18.93
2019-02-27T01:51:08.513Z,18.43
2019-02-27T01:53:37.917Z,18.40
2019-02-27T01:56:07.245Z,17.57
2019-02-27T01:58:35.749Z,18.60
2019-02-27T02:01:04.577Z,18.63
2019-02-27T02:03:33.057Z,20.40
2019-02-27T02:06:01.566Z,19.57
2019-02-27T02:08:30.114Z,19.80
2019-02-27T02:10:58.926Z,19.23
2019-02-27T02:13:48.773Z,19.23
2019-02-27T02:16:51.902Z,19.47
2019-02-27T02:19:54.041Z,19.90
2019-02-27T02:22:41.299Z,18.83
2019-02-27T02:25:32.185Z,18.70
2019-02-27T02:28:22.688Z,19.70
2019-02-27T02:31:04.971Z,19.17
2019-02-27T02:33:40.970Z,18.63
2019-02-27T02:36:13.176Z,19.53
2019-02-27T02:38:55.070Z,19.50
2019-02-27T02:41:46.249Z,20.43
2019-02-27T02:44:29.295Z,21.90
2019-02-27T02:47:04.706Z,19.53
2019-02-27T02:49:42.032Z,19.83
2019-02-27T02:52:29.843Z,19.93
2019-02-27T02:55:05.227Z,19.30
2019-02-27T02:57:49.198Z,19.13
2019-02-27T03:00:42.694Z,20.67
2019-02-27T03:03:39.467Z,19.57
2019-02-27T03:06:34.417Z,18.97
2019-02-27T03:09:12.738Z,19.57
2019-02-27T03:11:54.822Z,19.67
2019-02-27T03:14:45.767Z,19.10
2019-02-27T03:17:40.903Z,19.37
2019-02-27T03:20:28.540Z,20.00
2019-02-27T03:23:03.602Z,18.83
2019-02-27T03:25:41.797Z,18.70
2019-02-27T03:28:27.180Z,20.30
2019-02-27T03:31:17.970Z,19.47
2019-02-27T03:34:09.048Z,21.03
2019-02-27T03:37:13.123Z,19.57
2019-02-27T03:39:56.575Z,18.70
2019-02-27T03:42:30.858Z,18.73
2019-02-27T03:45:08.251Z,19.67
2019-02-27T03:47:43.520Z,20.30
2019-02-27T03:50:19.215Z,19.53
2019-02-27T03:53:03.113Z,18.70
2019-02-27T03:56:09.746Z,19.37
2019-02-27T03:59:06.026Z,19.17
2019-02-27T04:01:44.007Z,18.57
2019-02-27T04:04:22.999Z,19.10
2019-02-27T04:07:08.099Z,19.57
2019-02-27T04:09:36.524Z,17.87
2019-02-27T04:12:05.032Z,19.53
2019-02-27T04:14:40.416Z,19.17
2019-02-27T04:17:06.989Z,19.07
2019-02-27T04:19:38.743Z,18.80
2019-02-27T04:22:05.227Z,18.70
2019-02-27T04:24:33.739Z,18.50
2019-02-27T04:27:02.226Z,19.00
2019-02-27T04:29:30.680Z,18.47
2019-02-27T04:31:59.137Z,19.27
2019-02-27T04:34:27.699Z,19.57
2019-02-27T04:36:56.183Z,19.07
2019-02-27T04:39:24.635Z,19.27
2019-02-27T04:41:53.044Z,19.20
2019-02-27T04:44:21.817Z,18.53
2019-02-27T04:46:54.822Z,19.60
2019-02-27T04:49:20.972Z,18.83
2019-02-27T04:51:50.615Z,19.37
2019-02-27T04:54:19.551Z,19.43
2019-02-27T04:56:47.983Z,18.07
2019-02-27T04:59:18.759Z,19.10
2019-02-27T05:01:46.692Z,18.40
2019-02-27T05:04:15.352Z,18.77
2019-02-27T05:06:47.103Z,19.07
2019-02-27T05:09:14.312Z,19.33
2019-02-27T05:11:47.541Z,19.93
2019-02-27T05:14:13.048Z,19.87
2019-02-27T05:16:41.473Z,18.97
2019-02-27T05:19:09.896Z,19.33
2019-02-27T05:21:38.335Z,19.53
2019-02-27T05:24:07.870Z,19.93
2019-02-27T05:26:36.953Z,19.70
2019-02-27T05:29:05.724Z,20.93
2019-02-27T05:31:34.228Z,20.33
2019-02-27T05:34:02.637Z,20.03
2019-02-27T05:36:31.730Z,19.70
2019-02-27T05:39:00.988Z,18.90
2019-02-27T05:41:32.893Z,19.47
2019-02-27T05:43:59.716Z,20.03
2019-02-27T05:46:28.137Z,18.77
2019-02-27T05:48:56.564Z,20.93
2019-02-27T05:51:25.062Z,19.57
2019-02-27T05:53:53.499Z,20.20
2019-02-27T05:56:22.040Z,18.43
2019-02-27T05:58:50.524Z,19.33
2019-02-27T06:01:18.914Z,19.70
2019-02-27T06:03:49.454Z,20.17
2019-02-27T06:06:17.546Z,22.43
2019-02-27T06:08:46.040Z,21.83
2019-02-27T06:11:14.528Z,21.93
2019-02-27T06:13:45.045Z,21.80
2019-02-27T06:16:13.196Z,21.90
2019-02-27T06:18:41.624Z,20.03
2019-02-27T06:21:10.016Z,21.70
2019-02-27T06:23:38.568Z,20.70
2019-02-27T06:26:07.060Z,20.77
2019-02-27T06:28:35.472Z,18.43
2019-02-27T06:31:03.948Z,20.50
2019-02-27T06:33:33.225Z,19.50
2019-02-27T06:36:02.433Z,20.13
2019-02-27T06:38:30.881Z,19.50
2019-02-27T06:40:59.503Z,20.13
2019-02-27T06:43:28.052Z,20.53
2019-02-27T06:45:56.525Z,19.43
2019-02-27T06:48:24.929Z,20.80
2019-02-27T06:50:53.402Z,20.60
2019-02-27T06:53:21.841Z,21.00
2019-02-27T06:55:50.353Z,21.50
2019-02-27T06:58:18.865Z,21.50
2019-02-27T07:00:47.397Z,20.63
2019-02-27T07:03:15.804Z,20.13
2019-02-27T07:05:45.580Z,20.97
2019-02-27T07:08:14.437Z,20.93
2019-02-27T07:10:42.938Z,21.77
2019-02-27T07:13:11.413Z,23.43
2019-02-27T07:15:39.901Z,20.67
2019-02-27T07:18:08.373Z,20.73
2019-02-27T07:20:36.793Z,20.20
2019-02-27T07:23:05.344Z,19.83
2019-02-27T07:25:33.849Z,19.17
2019-02-27T07:28:03.484Z,20.07
2019-02-27T07:30:32.123Z,20.27
2019-02-27T07:33:00.665Z,19.73
2019-02-27T07:35:29.331Z,20.47
2019-02-27T07:37:58.197Z,20.70
2019-02-27T07:40:26.733Z,20.80
2019-02-27T07:42:55.361Z,20.00
2019-02-27T07:45:23.934Z,19.97
2019-02-27T07:47:52.849Z,21.27
2019-02-27T07:50:21.702Z,20.17
2019-02-27T07:52:51.951Z,20.40
2019-02-27T07:55:22.950Z,19.50
2019-02-27T07:57:50.537Z,20.10
2019-02-27T08:00:19.061Z,20.17
2019-02-27T08:02:47.614Z,19.40
2019-02-27T08:05:16.301Z,20.63
2019-02-27T08:07:48.683Z,19.63
2019-02-27T08:10:15.946Z,20.90
2019-02-27T08:12:44.422Z,19.50
2019-02-27T08:15:13.846Z,19.87
2019-02-27T08:17:42.476Z,20.03
2019-02-27T08:20:11.162Z,20.37
2019-02-27T08:22:39.690Z,19.83
2019-02-27T08:25:08.682Z,19.87
2019-02-27T08:27:37.146Z,20.33
2019-02-27T08:30:07.204Z,20.80
2019-02-27T08:32:36.023Z,20.63
2019-02-27T08:35:04.563Z,20.20
2019-02-27T08:37:33.046Z,19.47
2019-02-27T08:40:01.571Z,19.77
2019-02-27T08:42:29.983Z,20.47
2019-02-27T08:44:58.766Z,19.70
2019-02-27T08:47:27.185Z,20.00
2019-02-27T08:49:57.993Z,19.80
2019-02-27T08:52:25.806Z,19.40
2019-02-27T08:54:54.335Z,19.40
2019-02-27T08:57:22.832Z,19.17
2019-02-27T08:59:51.251Z,19.20
2019-02-27T09:02:19.891Z,20.07
2019-02-27T09:04:48.403Z,18.10
2019-02-27T09:07:16.943Z,19.50
2019-02-27T09:09:45.398Z,19.60
2019-02-27T09:12:14.066Z,20.20
2019-02-27T09:14:42.735Z,18.27
2019-02-27T09:17:11.220Z,19.30
2019-02-27T09:19:44.967Z,19.30
2019-02-27T09:22:09.875Z,18.80
2019-02-27T09:24:38.327Z,18.90
2019-02-27T09:27:14.747Z,18.40
2019-02-27T09:29:43.175Z,17.83
2019-02-27T09:32:11.777Z,18.60
2019-02-27T09:34:41.188Z,18.47
2019-02-27T09:37:09.707Z,19.10
2019-02-27T09:39:38.220Z,18.47
2019-02-27T09:42:06.752Z,17.97
2019-02-27T09:44:36.658Z,18.40
2019-02-27T09:47:05.392Z,18.40
2019-02-27T09:49:33.883Z,17.90
2019-02-27T09:52:02.508Z,17.63
2019-02-27T09:54:31.204Z,17.63
2019-02-27T09:57:02.244Z,16.70
2019-02-27T09:59:30.272Z,16.77
2019-02-27T10:01:58.801Z,17.50
2019-02-27T10:04:28.822Z,17.00
2019-02-27T10:06:57.604Z,16.17
2019-02-27T10:09:25.988Z,17.00
2019-02-27T10:11:54.524Z,17.07
2019-02-27T10:14:23.680Z,15.67
2019-02-27T10:16:52.176Z,15.90
2019-02-27T10:19:20.778Z,16.27
2019-02-27T10:21:49.284Z,15.97
2019-02-27T10:24:17.696Z,15.43
2019-02-27T10:26:46.502Z,15.87
2019-02-27T10:29:15.020Z,15.20
2019-02-27T10:31:43.684Z,15.33
2019-02-27T10:34:14.546Z,15.37
2019-02-27T10:36:42.313Z,16.10
2019-02-27T10:39:11.580Z,16.27
2019-02-27T10:41:40.608Z,15.70
2019-02-27T10:44:10.013Z,14.13
2019-02-27T10:46:39.545Z,15.63
2019-02-27T10:49:08.457Z,15.00
2019-02-27T10:51:37.593Z,14.83
2019-02-27T10:54:06.201Z,13.83
2019-02-27T10:56:34.684Z,14.87
2019-02-27T10:59:03.269Z,15.00
2019-02-27T11:01:33.213Z,14.23
2019-02-27T11:04:03.101Z,13.77
2019-02-27T11:06:34.219Z,13.50
2019-02-27T11:09:04.633Z,14.00
2019-02-27T11:11:33.340Z,14.33
2019-02-27T11:14:01.938Z,13.60
2019-02-27T11:16:30.429Z,12.93
2019-02-27T11:18:58.842Z,10.80
2019-02-27T11:21:27.433Z,10.70
2019-02-27T11:23:55.881Z,11.43
2019-02-27T11:26:24.389Z,10.57
2019-02-27T11:28:52.841Z,11.23
2019-02-27T11:31:21.537Z,10.67
2019-02-27T11:33:50.001Z,10.83
2019-02-27T11:36:18.761Z,11.00
2019-02-27T11:38:47.314Z,11.13
2019-02-27T11:41:15.957Z,10.77
2019-02-27T11:43:45.022Z,10.23
2019-02-27T11:46:13.540Z,11.50
2019-02-27T11:48:41.949Z,11.10
2019-02-27T11:51:10.449Z,10.60
2019-02-27T11:53:38.928Z,11.90
2019-02-27T11:56:07.409Z,11.27
2019-02-27T11:58:38.515Z,11.57
2019-02-27T12:01:06.222Z,11.03
2019-02-27T12:03:34.685Z,10.20
2019-02-27T12:06:05.389Z,10.60
2019-02-27T12:08:33.354Z,10.23
2019-02-27T12:11:01.879Z,11.03
2019-02-27T12:13:32.294Z,11.67
2019-02-27T12:16:00.410Z,9.60
2019-02-27T12:18:28.978Z,10.30
2019-02-27T12:20:57.494Z,10.10
2019-02-27T12:23:26.014Z,10.17
2019-02-27T12:25:54.442Z,10.33
2019-02-27T12:28:23.706Z,10.00
2019-02-27T12:30:52.143Z,10.13
2019-02-27T12:33:20.638Z,10.67
2019-02-27T12:35:49.186Z,11.20
2019-02-27T12:38:17.658Z,9.93
2019-02-27T12:40:46.482Z,10.30
2019-02-27T12:43:18.360Z,10.65
2019-02-27T12:45:45.134Z,10.60
2019-02-27T12:48:13.998Z,10.30
2019-02-27T12:50:42.770Z,9.58
2019-02-27T12:53:11.271Z,9.63
2019-02-27T12:55:39.783Z,9.07
2019-02-27T12:58:08.330Z,9.70
2019-02-27T13:00:36.872Z,9.10
2019-02-27T13:03:09.308Z,9.13
2019-02-27T13:05:36.767Z,9.70
2019-02-27T13:08:05.347Z,9.60
2019-02-27T13:10:34.375Z,9.20
2019-02-27T13:13:02.989Z,8.28
2019-02-27T13:15:32.118Z,8.20
2019-02-27T13:18:00.731Z,7.72
2019-02-27T13:20:29.256Z,7.50
2019-02-27T13:22:58.030Z,7.80
2019-02-27T13:25:26.538Z,6.50
2019-02-27T13:27:55.019Z,6.70
2019-02-27T13:30:23.546Z,6.40
2019-02-27T13:32:52.059Z,5.83
2019-02-27T13:35:22.982Z,5.40
2019-02-27T13:37:50.848Z,5.10
2019-02-27T13:40:19.597Z,6.10
2019-02-27T13:42:52.345Z,9.03
2019-02-27T13:45:19.635Z,5.60
2019-02-27T13:47:48.135Z,5.80
2019-02-27T13:50:16.870Z,5.60
2019-02-27T13:52:49.780Z,8.38
2019-02-27T13:55:17.636Z,6.60
2019-02-27T13:57:46.139Z,6.37
2019-02-27T14:00:25.991Z,7.10
2019-02-27T14:02:54.684Z,6.37
2019-02-27T14:05:23.188Z,6.97
2019-02-27T14:07:57.100Z,7.05
2019-02-27T14:10:22.124Z,6.50
2019-02-27T14:12:50.654Z,6.37
2019-02-27T14:15:19.578Z,10.60
2019-02-27T14:17:48.060Z,7.77
2019-02-27T14:20:17.236Z,6.83
2019-02-27T14:22:46.324Z,6.42
2019-02-27T14:25:15.804Z,6.42
2019-02-27T14:27:47.251Z,5.92
2019-02-27T14:30:15.948Z,6.25
2019-02-27T14:32:45.036Z,7.00
2019-02-27T14:35:14.680Z,6.20
2019-02-27T14:37:43.164Z,5.47
2019-02-27T14:40:12.829Z,5.00
2019-02-27T14:42:41.330Z,5.30
2019-02-27T14:45:11.317Z,4.90
2019-02-27T14:47:39.833Z,4.80
2019-02-27T14:50:09.193Z,5.10
2019-02-27T14:52:37.605Z,5.70
2019-02-27T14:55:06.178Z,5.67
2019-02-27T14:57:34.589Z,6.23
2019-02-27T15:00:05.647Z,6.40
2019-02-27T15:02:33.726Z,6.97
2019-02-27T15:05:06.083Z,6.13
2019-02-27T15:07:32.501Z,5.80
2019-02-27T15:10:00.909Z,5.43
2019-02-27T15:12:29.381Z,5.33
2019-02-27T15:14:58.057Z,4.77
2019-02-27T15:17:26.529Z,5.17
2019-02-27T15:19:55.125Z,5.17
2019-02-27T15:22:26.045Z,6.83
2019-02-27T15:24:54.642Z,4.87
2019-02-27T15:27:24.988Z,5.60
2019-02-27T15:29:53.413Z,4.97
2019-02-27T15:32:21.916Z,4.80
2019-02-27T15:34:50.402Z,4.20
2019-02-27T15:37:18.858Z,4.93
2019-02-27T15:39:47.377Z,5.00
2019-02-27T15:42:16.205Z,5.00
2019-02-27T15:44:44.789Z,5.63
2019-02-27T15:47:13.278Z,5.83
2019-02-27T15:49:42.790Z,6.20
2019-02-27T15:52:11.282Z,5.40
2019-02-27T15:54:39.756Z,5.20
2019-02-27T15:57:08.362Z,4.93
2019-02-27T15:59:40.830Z,5.97
2019-02-27T16:02:07.136Z,5.40
2019-02-27T16:04:35.708Z,5.47
2019-02-27T16:07:04.206Z,5.10
2019-02-27T16:09:32.642Z,5.60
2019-02-27T16:12:01.145Z,5.03
2019-02-27T16:14:30.103Z,5.50
2019-02-27T16:16:58.608Z,5.67
2019-02-27T16:19:27.129Z,6.07
2019-02-27T16:21:57.348Z,6.03
2019-02-27T16:24:25.988Z,7.87
2019-02-27T16:26:54.805Z,7.97
2019-02-27T16:29:23.662Z,5.30
2019-02-27T16:31:52.103Z,5.70
2019-02-27T16:34:20.625Z,4.97
2019-02-27T16:36:49.148Z,5.13
2019-02-27T16:39:17.711Z,5.30
2019-02-27T16:41:46.541Z,5.17
2019-02-27T16:44:15.145Z,5.67
2019-02-27T16:46:44.929Z,5.23
2019-02-27T16:49:13.585Z,5.47
2019-02-27T16:51:42.177Z,6.40
2019-02-27T16:54:11.030Z,6.83
2019-02-27T16:56:46.556Z,6.43
2019-02-27T16:59:12.327Z,7.20
2019-02-27T17:01:40.958Z,6.43
2019-02-27T17:04:11.306Z,7.57
2019-02-27T17:06:40.005Z,6.03
2019-02-27T17:09:10.107Z,5.37
2019-02-27T17:11:38.709Z,5.90
2019-02-27T17:14:07.190Z,5.80
2019-02-27T17:16:38.341Z,5.70
2019-02-27T17:19:06.850Z,5.93
2019-02-27T17:21:35.724Z,6.03
2019-02-27T17:24:04.214Z,8.60
2019-02-27T17:26:35.258Z,7.00
2019-02-27T17:29:02.888Z,6.07
2019-02-27T17:31:31.303Z,7.37
2019-02-27T17:33:59.807Z,11.07
2019-02-27T17:36:31.600Z,9.80
2019-02-27T17:38:58.606Z,9.17
2019-02-27T17:41:27.064Z,8.97
2019-02-27T17:43:55.631Z,8.90
2019-02-27T17:46:24.145Z,10.03
2019-02-27T17:48:52.567Z,11.13
2019-02-27T17:51:21.019Z,12.83
2019-02-27T17:53:49.427Z,11.63
2019-02-27T17:56:17.910Z,9.93
2019-02-27T17:59:08.593Z,9.70
2019-02-27T18:01:35.833Z,10.47
2019-02-27T18:04:04.327Z,9.57
2019-02-27T18:06:34.872Z,9.57
2019-02-27T18:09:04.223Z,10.73
2019-02-27T18:11:32.731Z,9.77
2019-02-27T18:14:01.213Z,11.17
2019-02-27T18:16:29.719Z,10.53
2019-02-27T18:18:58.837Z,9.80
2019-02-27T18:21:27.822Z,10.40
2019-02-27T18:23:58.897Z,9.77
2019-02-27T18:26:26.526Z,9.93
2019-02-27T18:28:54.944Z,9.70
2019-02-27T18:31:26.658Z,9.70
2019-02-27T18:33:53.636Z,8.60
2019-02-27T18:36:22.556Z,9.40
2019-02-27T18:38:51.193Z,9.37
2019-02-27T18:41:20.120Z,10.10
2019-02-27T18:43:48.644Z,9.03
2019-02-27T18:46:17.148Z,9.40
2019-02-27T18:48:45.633Z,8.87
2019-02-27T18:51:14.148Z,9.10
2019-02-27T18:53:47.322Z,9.13
2019-02-27T18:56:13.012Z,9.33
2019-02-27T18:58:41.545Z,8.77
2019-02-27T19:01:10.725Z,10.63
2019-02-27T19:03:39.236Z,8.80
2019-02-27T19:06:07.756Z,9.77
2019-02-27T19:08:36.260Z,9.10
2019-02-27T19:11:04.935Z,9.93
2019-02-27T19:13:33.429Z,11.10
2019-02-27T19:16:02.035Z,9.97
2019-02-27T19:18:30.692Z,10.13
2019-02-27T19:21:00.176Z,9.90
2019-02-27T19:23:28.884Z,10.60
2019-02-27T19:25:57.383Z,16.97
2019-02-27T19:28:25.927Z,13.33
2019-02-27T19:30:54.332Z,12.40
2019-02-27T19:33:23.313Z,14.07
2019-02-27T19:35:55.834Z,14.23
2019-02-27T19:38:22.393Z,14.50
2019-02-27T19:40:50.881Z,14.00
2019-02-27T19:43:21.223Z,13.00
2019-02-27T19:45:49.709Z,12.73
2019-02-27T19:48:18.357Z,12.10
2019-02-27T19:50:46.917Z,11.90
2019-02-27T19:53:15.653Z,11.60
2019-02-27T19:55:44.145Z,12.30
2019-02-27T19:58:17.249Z,13.47
2019-02-27T20:00:48.345Z,12.93
2019-02-27T20:03:13.567Z,10.67
2019-02-27T20:05:42.106Z,11.53
2019-02-27T20:08:11.134Z,12.43
2019-02-27T20:10:39.760Z,13.20
2019-02-27T20:13:08.263Z,13.43
2019-02-27T20:15:36.796Z,12.80
2019-02-27T20:18:08.239Z,14.07
2019-02-27T20:20:40.031Z,13.60
2019-02-27T20:23:06.092Z,13.93
2019-02-27T20:25:34.861Z,14.67
2019-02-27T20:28:03.617Z,15.00
2019-02-27T20:30:32.329Z,13.90
2019-02-27T20:33:02.590Z,15.10
2019-02-27T20:35:31.323Z,14.33
2019-02-27T20:38:01.591Z,14.27
2019-02-27T20:40:33.964Z,14.00
2019-02-27T20:43:00.577Z,14.53
2019-02-27T20:45:29.173Z,14.77
2019-02-27T20:48:01.467Z,16.13
2019-02-27T20:50:34.937Z,15.23
2019-02-27T20:53:00.194Z,14.63
2019-02-27T20:55:30.979Z,15.07
2019-02-27T20:57:58.949Z,14.27
2019-02-27T21:00:27.441Z,15.07
2019-02-27T21:02:55.953Z,14.70
2019-02-27T21:05:24.597Z,15.10
2019-02-27T21:07:53.399Z,15.53
2019-02-27T21:10:22.942Z,15.60
2019-02-27T21:12:54.220Z,16.47
2019-02-27T21:15:21.690Z,16.37
2019-02-27T21:17:50.193Z,16.20
2019-02-27T21:20:18.787Z,16.30
2019-02-27T21:22:47.290Z,16.53
2019-02-27T21:25:15.866Z,15.90
2019-02-27T21:27:44.503Z,16.53
2019-02-27T21:30:18.787Z,16.40
2019-02-27T21:32:46.758Z,17.23
2019-02-27T21:35:15.272Z,17.33
2019-02-27T21:37:45.491Z,16.73
2019-02-27T21:40:14.637Z,18.00
2019-02-27T21:42:43.142Z,17.00
2019-02-27T21:45:12.690Z,16.97
2019-02-27T21:47:41.182Z,17.20
2019-02-27T21:50:10.454Z,17.90
2019-02-27T21:52:39.306Z,18.17
2019-02-27T21:55:12.525Z,18.40
2019-02-27T21:57:40.207Z,19.37
2019-02-27T22:00:11.373Z,19.10
2019-02-27T22:02:40.501Z,19.97
2019-02-27T22:05:09.358Z,19.87
2019-02-27T22:07:37.878Z,19.67
2019-02-27T22:10:06.806Z,20.53
2019-02-27T22:12:36.056Z,21.93
2019-02-27T22:15:05.231Z,20.97
2019-02-27T22:17:36.657Z,21.70
2019-02-27T22:20:04.227Z,22.63
2019-02-27T22:22:32.743Z,22.67
2019-02-27T22:25:01.238Z,23.37
2019-02-27T22:27:29.794Z,24.20
2019-02-27T22:29:59.726Z,25.43
2019-02-27T22:32:28.511Z,25.80
2019-02-27T22:34:59.171Z,25.20
2019-02-27T22:37:27.235Z,25.73
2019-02-27T22:39:55.791Z,25.43
2019-02-27T22:42:24.435Z,25.77
2019-02-27T22:44:52.860Z,24.67
2019-02-27T22:47:22.398Z,25.20
2019-02-27T22:49:51.467Z,23.83
2019-02-27T22:52:20.923Z,24.23
2019-02-27T22:54:49.583Z,23.90
2019-02-27T22:57:18.072Z,24.73
2019-02-27T22:59:46.519Z,24.37
2019-02-27T23:02:15.203Z,25.13
2019-02-27T23:04:43.779Z,25.63
2019-02-27T23:07:12.355Z,25.17
2019-02-27T23:09:40.935Z,25.37
2019-02-27T23:12:09.441Z,25.00
2019-02-27T23:14:38.015Z,26.93
2019-02-27T23:17:06.436Z,25.33
2019-02-27T23:19:34.963Z,24.40
2019-02-27T23:22:03.867Z,25.77
2019-02-27T23:24:32.391Z,25.70
2019-02-27T23:27:03.232Z,25.83
2019-02-27T23:29:31.449Z,27.90
2019-02-27T23:31:59.955Z,28.07
2019-02-27T23:34:28.472Z,27.23
2019-02-27T23:36:57.392Z,25.83
2019-02-27T23:39:25.908Z,27.77
2019-02-27T23:41:56.557Z,27.57
2019-02-27T23:44:24.928Z,27.73
2019-02-27T23:46:57.093Z,28.50
2019-02-27T23:49:23.601Z,28.40
2019-02-27T23:51:52.064Z,27.80
2019-02-27T23:54:36.514Z,27.93
2019-02-27T23:57:05.440Z,28.30
2019-02-27T23:59:35.595Z,27.77
